createdAt,value
2022-09-04T00:00:12.946Z,5.95
2022-09-04T00:03:01.547Z,5.47
2022-09-04T00:05:41.899Z,7.05
2022-09-04T00:08:23.365Z,5.32
2022-09-04T00:10:53.663Z,6.78
2022-09-04T00:13:28.125Z,6.38
2022-09-04T00:16:37.379Z,6.32
2022-09-04T00:19:14.041Z,5.45
2022-09-04T00:21:59.763Z,6.30
2022-09-04T00:24:35.258Z,9.85
2022-09-04T00:27:10.293Z,6.15
2022-09-04T00:30:08.907Z,8.43
2022-09-04T00:32:45.725Z,5.15
2022-09-04T00:35:32.281Z,8.68
2022-09-04T00:38:07.815Z,7.68
2022-09-04T00:40:52.801Z,6.68
2022-09-04T00:43:37.299Z,7.13
2022-09-04T00:46:33.433Z,7.43
2022-09-04T00:49:12.403Z,6.68
2022-09-04T00:52:00.382Z,7.60
2022-09-04T00:55:02.043Z,7.80
2022-09-04T00:57:49.594Z,6.88
2022-09-04T01:00:18.556Z,6.97
2022-09-04T01:03:00.417Z,7.70
2022-09-04T01:05:59.673Z,8.90
2022-09-04T01:08:40.653Z,6.90
2022-09-04T01:11:44.304Z,7.72
2022-09-04T01:14:41.328Z,6.70
2022-09-04T01:17:38.402Z,9.27
2022-09-04T01:20:20.089Z,9.32
2022-09-04T01:23:11.557Z,6.95
2022-09-04T01:26:11.290Z,8.52
2022-09-04T01:28:56.333Z,8.32
2022-09-04T01:31:36.555Z,8.48
2022-09-04T01:34:19.859Z,8.05
2022-09-04T01:36:55.177Z,6.63
2022-09-04T01:39:25.842Z,8.75
2022-09-04T01:42:14.408Z,7.22
2022-09-04T01:44:40.922Z,7.88
2022-09-04T01:47:32.424Z,8.00
2022-09-04T01:50:08.192Z,9.27
2022-09-04T01:52:53.294Z,8.57
2022-09-04T01:55:31.910Z,9.20
2022-09-04T01:58:19.042Z,12.63
2022-09-04T02:00:57.875Z,8.52
2022-09-04T02:03:43.370Z,8.00
2022-09-04T02:06:48.439Z,9.10
2022-09-04T02:09:33.695Z,9.25
2022-09-04T02:12:37.947Z,11.10
2022-09-04T02:15:31.547Z,8.65
2022-09-04T02:18:22.328Z,8.25
2022-09-04T02:21:25.044Z,8.60
2022-09-04T02:24:09.902Z,8.45
2022-09-04T02:26:45.255Z,10.80
2022-09-04T02:29:26.069Z,9.65
2022-09-04T02:32:09.622Z,11.25
2022-09-04T02:35:03.140Z,12.48
2022-09-04T02:37:51.041Z,11.90
2022-09-04T02:40:37.575Z,10.13
2022-09-04T02:43:19.649Z,10.52
2022-09-04T02:46:00.022Z,12.88
2022-09-04T02:48:41.661Z,11.80
2022-09-04T02:51:32.616Z,14.93
2022-09-04T02:54:02.176Z,12.25
2022-09-04T02:56:44.685Z,11.93
2022-09-04T02:59:25.549Z,10.98
2022-09-04T03:02:00.480Z,12.43
2022-09-04T03:04:33.098Z,14.65
2022-09-04T03:07:12.057Z,13.95
2022-09-04T03:09:51.764Z,12.57
2022-09-04T03:12:28.415Z,10.45
2022-09-04T03:15:27.619Z,11.70
2022-09-04T03:18:17.682Z,10.15
2022-09-04T03:20:52.936Z,11.10
2022-09-04T03:25:55.512Z,10.20
2022-09-04T03:28:34.533Z,9.00
2022-09-04T03:31:27.371Z,10.23
2022-09-04T03:34:22.816Z,11.07
2022-09-04T03:36:58.511Z,10.70
2022-09-04T03:39:57.562Z,12.55
2022-09-04T03:42:33.974Z,10.27
2022-09-04T03:45:15.756Z,9.95
2022-09-04T03:47:42.172Z,9.70
2022-09-04T03:50:56.563Z,11.70
2022-09-04T03:53:41.391Z,13.20
2022-09-04T03:56:49.972Z,14.15
2022-09-04T04:00:01.819Z,13.73
2022-09-04T04:02:44.478Z,12.02
2022-09-04T04:05:28.147Z,14.52
2022-09-04T04:08:04.015Z,12.38
2022-09-04T04:10:45.242Z,17.85
2022-09-04T04:13:49.337Z,14.10
2022-09-04T04:16:31.131Z,13.63
2022-09-04T04:19:07.068Z,13.93
2022-09-04T04:21:58.459Z,11.68
2022-09-04T04:24:58.525Z,10.90
2022-09-04T04:28:05.328Z,14.90
2022-09-04T04:30:50.206Z,15.35
2022-09-04T04:33:44.371Z,14.07
2022-09-04T04:36:42.506Z,17.50
2022-09-04T04:39:35.972Z,13.68
2022-09-04T04:42:15.031Z,16.70
2022-09-04T04:45:15.308Z,18.40
2022-09-04T04:48:20.928Z,15.15
2022-09-04T04:50:59.403Z,13.95
2022-09-04T04:53:36.250Z,15.75
2022-09-04T04:56:15.367Z,14.98
2022-09-04T04:59:08.858Z,16.42
2022-09-04T05:01:53.809Z,17.38
2022-09-04T05:04:35.935Z,17.15
2022-09-04T05:07:14.163Z,16.17
2022-09-04T05:09:51.038Z,14.23
2022-09-04T05:12:35.457Z,17.05
2022-09-04T05:15:52.895Z,17.95
2022-09-04T05:18:37.130Z,14.32
2022-09-04T05:21:25.290Z,15.07
2022-09-04T05:24:14.227Z,13.77
2022-09-04T05:26:46.548Z,13.60
2022-09-04T05:29:22.025Z,13.57
2022-09-04T05:32:04.045Z,12.55
2022-09-04T05:34:39.516Z,15.05
2022-09-04T05:37:24.818Z,12.82
2022-09-04T05:39:54.260Z,10.82
2022-09-04T05:43:02.525Z,12.30
2022-09-04T05:46:04.815Z,12.02
2022-09-04T05:48:40.466Z,13.32
2022-09-04T05:51:19.908Z,12.13
2022-09-04T05:54:23.563Z,11.50
2022-09-04T05:57:20.645Z,13.95
2022-09-04T06:00:08.550Z,12.07
2022-09-04T06:02:56.355Z,12.82
2022-09-04T06:05:40.936Z,11.20
2022-09-04T06:08:19.543Z,11.32
2022-09-04T06:11:05.104Z,13.43
2022-09-04T06:16:14.951Z,12.20
2022-09-04T06:18:51.394Z,11.93
2022-09-04T06:21:52.299Z,10.48
2022-09-04T06:25:00.506Z,12.93
2022-09-04T06:27:49.401Z,10.82
2022-09-04T06:30:17.734Z,9.63
2022-09-04T06:33:09.164Z,10.00
2022-09-04T06:36:12.703Z,11.07
2022-09-04T06:38:45.553Z,10.85
2022-09-04T06:41:26.080Z,10.48
2022-09-04T06:44:30.024Z,9.75
2022-09-04T06:47:07.355Z,9.55
2022-09-04T06:49:58.574Z,9.55
2022-09-04T06:52:29.533Z,7.68
2022-09-04T06:55:19.236Z,8.05
2022-09-04T06:57:54.901Z,8.52
2022-09-04T07:00:21.823Z,6.90
2022-09-04T07:03:07.293Z,7.50
2022-09-04T07:06:05.198Z,6.60
2022-09-04T07:08:56.598Z,7.45
2022-09-04T07:12:16.915Z,6.57
2022-09-04T07:15:05.113Z,8.10
2022-09-04T07:17:36.468Z,10.20
2022-09-04T07:20:10.696Z,8.50
2022-09-04T07:22:47.647Z,9.47
2022-09-04T07:25:33.803Z,10.18
2022-09-04T07:28:29.421Z,9.63
2022-09-04T07:31:24.482Z,9.55
2022-09-04T07:34:03.154Z,10.95
2022-09-04T07:37:01.506Z,10.70
2022-09-04T07:39:37.826Z,11.43
2022-09-04T07:42:30.918Z,10.25
2022-09-04T07:45:06.919Z,10.05
2022-09-04T07:47:45.961Z,10.02
2022-09-04T07:50:25.840Z,9.88
2022-09-04T07:53:23.235Z,9.65
2022-09-04T07:56:00.726Z,9.13
2022-09-04T07:58:53.396Z,9.20
2022-09-04T08:01:42.154Z,10.30
2022-09-04T08:04:44.441Z,8.55
2022-09-04T08:07:38.593Z,8.82
2022-09-04T08:10:14.652Z,10.25
2022-09-04T08:13:08.748Z,10.48
2022-09-04T08:16:04.157Z,9.60
2022-09-04T08:18:44.991Z,9.80
2022-09-04T08:21:11.572Z,9.40
2022-09-04T08:24:16.472Z,9.60
2022-09-04T08:27:04.841Z,9.88
2022-09-04T08:30:08.989Z,11.43
2022-09-04T08:32:53.432Z,12.38
2022-09-04T08:35:48.995Z,11.07
2022-09-04T08:38:38.088Z,13.60
2022-09-04T08:41:37.489Z,10.65
2022-09-04T08:44:26.876Z,11.25
2022-09-04T08:47:17.805Z,12.02
2022-09-04T08:50:06.144Z,14.23
2022-09-04T08:53:03.932Z,10.63
2022-09-04T08:55:48.366Z,11.70
2022-09-04T08:58:48.128Z,11.40
2022-09-04T09:01:33.568Z,11.50
2022-09-04T09:04:28.971Z,11.88
2022-09-04T09:07:26.784Z,11.55
2022-09-04T09:10:30.424Z,11.68
2022-09-04T09:13:06.150Z,11.52
2022-09-04T09:16:06.579Z,12.93
2022-09-04T09:18:55.767Z,9.80
2022-09-04T09:21:40.845Z,9.30
2022-09-04T09:24:46.455Z,10.55
2022-09-04T09:27:31.608Z,9.07
2022-09-04T09:30:16.986Z,8.23
2022-09-04T09:35:55.881Z,8.02
2022-09-04T09:38:59.716Z,10.13
2022-09-04T09:41:47.890Z,8.00
2022-09-04T09:44:47.874Z,10.43
2022-09-04T09:47:29.729Z,10.88
2022-09-04T09:49:59.986Z,9.15
2022-09-04T09:52:48.271Z,7.07
2022-09-04T09:55:36.462Z,8.60
2022-09-04T09:58:44.410Z,7.60
2022-09-04T10:01:31.912Z,7.07
2022-09-04T10:04:27.412Z,7.32
2022-09-04T10:07:02.182Z,7.65
2022-09-04T10:10:17.284Z,9.70
2022-09-04T10:13:15.148Z,4.80
2022-09-04T10:16:09.385Z,7.65
2022-09-04T10:18:57.114Z,5.00
2022-09-04T10:21:54.870Z,8.88
2022-09-04T10:24:41.244Z,5.55
2022-09-04T10:27:13.719Z,5.10
2022-09-04T10:29:55.275Z,5.50
2022-09-04T10:32:39.092Z,4.55
2022-09-04T10:35:14.778Z,5.47
2022-09-04T10:37:53.341Z,5.10
2022-09-04T10:40:37.598Z,5.68
2022-09-04T10:43:32.936Z,4.50
2022-09-04T10:46:23.682Z,4.35
2022-09-04T10:48:58.918Z,7.07
2022-09-04T10:52:05.096Z,4.35
2022-09-04T10:54:56.912Z,4.35
2022-09-04T10:57:42.230Z,4.72
2022-09-04T11:03:28.018Z,5.25
2022-09-04T11:06:25.849Z,3.88
2022-09-04T11:09:07.290Z,4.78
2022-09-04T11:12:01.830Z,3.92
2022-09-04T11:14:59.384Z,4.43
2022-09-04T11:17:53.675Z,5.68
2022-09-04T11:20:44.937Z,3.13
2022-09-04T11:23:36.379Z,4.10
2022-09-04T11:26:12.199Z,3.67
2022-09-04T11:28:57.564Z,3.78
2022-09-04T11:31:49.007Z,3.92
2022-09-04T11:34:51.534Z,4.00
2022-09-04T11:37:57.926Z,3.35
2022-09-04T11:40:50.988Z,3.05
2022-09-04T11:43:26.638Z,3.17
2022-09-04T11:46:15.005Z,3.00
2022-09-04T11:48:56.435Z,5.28
2022-09-04T11:51:47.365Z,4.40
2022-09-04T11:54:50.453Z,3.53
2022-09-04T11:57:23.120Z,3.00
2022-09-04T12:00:11.735Z,2.58
2022-09-04T12:03:07.969Z,4.82
2022-09-04T12:06:07.423Z,4.03
2022-09-04T12:09:00.268Z,3.55
2022-09-04T12:12:08.105Z,3.45
2022-09-04T12:14:46.879Z,3.50
2022-09-04T12:17:55.509Z,2.47
2022-09-04T12:20:59.632Z,2.78
2022-09-04T12:23:38.698Z,5.32
2022-09-04T12:26:23.489Z,2.63
2022-09-04T12:29:06.598Z,3.75
2022-09-04T12:32:01.002Z,4.93
2022-09-04T12:34:40.056Z,3.25
2022-09-04T12:37:28.503Z,1.90
2022-09-04T12:40:29.271Z,4.05
2022-09-04T12:43:16.381Z,1.33
2022-09-04T12:46:04.271Z,1.88
2022-09-04T12:49:01.265Z,2.72
2022-09-04T12:51:37.193Z,2.00
2022-09-04T12:54:09.851Z,4.65
2022-09-04T12:56:56.697Z,2.30
2022-09-04T12:59:59.614Z,3.55
2022-09-04T13:02:49.814Z,4.97
2022-09-04T13:05:41.915Z,2.85
2022-09-04T13:08:21.943Z,1.58
2022-09-04T13:10:55.970Z,2.10
2022-09-04T13:13:48.597Z,2.60
2022-09-04T13:16:33.015Z,2.47
2022-09-04T13:19:31.431Z,4.07
2022-09-04T13:22:05.856Z,1.77
2022-09-04T13:24:44.658Z,2.05
2022-09-04T13:27:49.189Z,1.42
2022-09-04T13:30:24.488Z,1.95
2022-09-04T13:32:58.440Z,2.33
2022-09-04T13:35:59.237Z,3.55
2022-09-04T13:38:31.779Z,1.60
2022-09-04T13:41:23.701Z,4.88
2022-09-04T13:44:24.681Z,2.45
2022-09-04T13:47:32.242Z,2.67
2022-09-04T13:50:25.537Z,3.55
2022-09-04T13:53:02.894Z,2.25
2022-09-04T13:55:39.412Z,2.08
2022-09-04T13:58:23.821Z,4.70
2022-09-04T14:00:54.260Z,1.80
2022-09-04T14:03:36.077Z,1.20
2022-09-04T14:06:05.485Z,3.95
2022-09-04T14:08:34.649Z,1.83
2022-09-04T14:11:17.776Z,4.57
2022-09-04T14:14:11.402Z,1.45
2022-09-04T14:16:39.785Z,1.38
2022-09-04T14:19:16.328Z,2.13
2022-09-04T14:22:02.288Z,2.55
2022-09-04T14:24:59.169Z,1.92
2022-09-04T14:28:14.536Z,3.15
2022-09-04T14:30:48.528Z,2.50
2022-09-04T14:33:37.024Z,2.13
2022-09-04T14:36:06.617Z,2.65
2022-09-04T14:38:51.697Z,1.90
2022-09-04T14:44:27.076Z,1.33
2022-09-04T14:46:56.945Z,2.15
2022-09-04T14:49:27.333Z,2.10
2022-09-04T14:51:56.722Z,1.67
2022-09-04T14:54:36.526Z,1.73
2022-09-04T14:57:28.651Z,1.98
2022-09-04T15:00:14.750Z,2.10
2022-09-04T15:03:15.523Z,1.98
2022-09-04T15:05:56.656Z,2.92
2022-09-04T15:08:39.947Z,3.20
2022-09-04T15:11:31.057Z,3.42
2022-09-04T15:14:08.559Z,2.28
2022-09-04T15:16:38.139Z,1.85
2022-09-04T15:19:20.022Z,2.00
2022-09-04T15:22:00.149Z,3.90
2022-09-04T15:24:32.546Z,1.92
2022-09-04T15:27:29.597Z,2.70
2022-09-04T15:30:05.228Z,1.65
2022-09-04T15:32:39.874Z,1.73
2022-09-04T15:35:26.297Z,2.22
2022-09-04T15:38:25.419Z,1.77
2022-09-04T15:41:15.639Z,2.22
2022-09-04T15:43:44.765Z,2.55
2022-09-04T15:46:40.930Z,2.35
2022-09-04T15:49:45.183Z,1.20
2022-09-04T15:52:44.636Z,1.90
2022-09-04T15:55:41.095Z,1.40
2022-09-04T15:58:16.763Z,1.85
2022-09-04T16:01:16.979Z,1.60
2022-09-04T16:04:17.358Z,3.05
2022-09-04T16:06:55.931Z,1.67
2022-09-04T16:09:30.200Z,1.73
2022-09-04T16:12:27.946Z,2.05
2022-09-04T16:15:22.663Z,2.45
2022-09-04T16:17:54.519Z,1.70
2022-09-04T16:20:50.823Z,1.85
2022-09-04T16:23:28.623Z,1.23
2022-09-04T16:25:58.090Z,1.67
2022-09-04T16:28:31.346Z,2.05
2022-09-04T16:31:01.856Z,2.13
2022-09-04T16:33:34.050Z,1.33
2022-09-04T16:36:06.355Z,2.13
2022-09-04T16:38:52.603Z,1.40
2022-09-04T16:41:26.604Z,1.48
2022-09-04T16:44:29.977Z,1.10
2022-09-04T16:47:17.561Z,3.15
2022-09-04T16:49:59.818Z,2.45
2022-09-04T16:52:41.586Z,1.88
2022-09-04T16:55:13.886Z,1.38
2022-09-04T16:57:43.806Z,3.13
2022-09-04T17:00:14.600Z,1.70
2022-09-04T17:02:55.902Z,1.73
2022-09-04T17:05:55.731Z,1.92
2022-09-04T17:08:43.205Z,1.85
2022-09-04T17:11:18.207Z,2.10
2022-09-04T17:13:59.826Z,1.98
2022-09-04T17:17:18.407Z,1.25
2022-09-04T17:20:20.545Z,1.60
2022-09-04T17:29:00.320Z,3.15
2022-09-04T17:29:22.314Z,3.08
2022-09-04T17:29:46.896Z,2.25
2022-09-04T17:33:26.715Z,1.88
2022-09-04T17:40:36.936Z,1.63
2022-09-04T17:41:33.295Z,2.35
2022-09-04T17:41:52.047Z,2.03
2022-09-04T17:44:26.303Z,3.45
2022-09-04T17:47:06.615Z,1.80
2022-09-04T17:49:34.826Z,1.98
2022-09-04T17:52:08.024Z,2.08
2022-09-04T17:54:41.630Z,1.77
2022-09-04T17:57:24.691Z,1.40
2022-09-04T18:00:02.695Z,3.10
2022-09-04T18:02:44.856Z,2.97
2022-09-04T18:05:26.618Z,3.58
2022-09-04T18:08:09.155Z,2.28
2022-09-04T18:10:46.203Z,2.20
2022-09-04T18:13:28.399Z,2.47
2022-09-04T18:16:10.618Z,2.00
2022-09-04T18:18:40.223Z,2.65
2022-09-04T18:21:31.673Z,2.00
2022-09-04T18:24:01.307Z,2.33
2022-09-04T18:26:40.045Z,1.63
2022-09-04T18:30:17.427Z,2.40
2022-09-04T18:37:12.806Z,3.45
2022-09-04T18:37:25.319Z,2.97
2022-09-04T18:38:16.768Z,3.75
2022-09-04T18:42:34.352Z,4.50
2022-09-04T18:50:24.956Z,2.53
2022-09-04T18:50:36.089Z,3.33
2022-09-04T18:50:51.992Z,2.33
2022-09-04T18:52:17.143Z,2.35
2022-09-04T18:54:56.601Z,5.13
2022-09-04T18:57:28.812Z,2.13
2022-09-04T19:00:08.042Z,2.67
2022-09-04T19:02:53.153Z,1.55
2022-09-04T19:05:22.131Z,3.00
2022-09-04T19:07:56.078Z,2.22
2022-09-04T19:10:36.987Z,2.95
2022-09-04T19:13:31.428Z,3.80
2022-09-04T19:16:19.691Z,1.40
2022-09-04T19:18:56.914Z,2.75
2022-09-04T19:21:34.029Z,3.80
2022-09-04T19:24:37.078Z,2.42
2022-09-04T19:27:20.544Z,4.75
2022-09-04T19:30:18.047Z,2.67
2022-09-04T19:33:04.900Z,3.20
2022-09-04T19:35:49.881Z,2.05
2022-09-04T19:41:42.966Z,3.03
2022-09-04T19:46:02.981Z,2.65
2022-09-04T19:46:13.655Z,3.00
2022-09-04T19:47:28.472Z,2.40
2022-09-04T19:53:18.470Z,2.55
2022-09-04T19:55:42.099Z,3.28
2022-09-04T19:58:20.074Z,4.13
2022-09-04T20:01:13.660Z,2.92
2022-09-04T20:04:08.539Z,5.97
2022-09-04T20:06:46.156Z,2.50
2022-09-04T20:09:29.069Z,2.83
2022-09-04T20:12:21.104Z,2.25
2022-09-04T20:14:54.914Z,2.90
2022-09-04T20:17:27.471Z,2.97
2022-09-04T20:20:01.495Z,2.55
2022-09-04T20:22:48.149Z,2.70
2022-09-04T20:25:28.018Z,2.70
2022-09-04T20:28:06.982Z,2.78
2022-09-04T20:30:36.593Z,2.95
2022-09-04T20:33:26.037Z,3.42
2022-09-04T20:35:59.697Z,2.67
2022-09-04T20:38:57.963Z,8.23
2022-09-04T20:41:49.485Z,3.17
2022-09-04T20:44:23.831Z,5.25
2022-09-04T20:52:45.636Z,2.70
2022-09-04T20:52:50.301Z,2.75
2022-09-04T20:53:20.378Z,3.08
2022-09-04T20:55:54.685Z,3.20
2022-09-04T21:02:37.854Z,3.35
2022-09-04T21:03:21.498Z,3.73
2022-09-04T21:04:49.727Z,2.85
2022-09-04T21:07:33.566Z,4.15
2022-09-04T21:10:46.901Z,2.75
2022-09-04T21:13:33.376Z,2.88
2022-09-04T21:16:13.636Z,3.88
2022-09-04T21:19:29.231Z,3.70
2022-09-04T21:22:33.984Z,2.28
2022-09-04T21:25:34.642Z,4.40
2022-09-04T21:28:28.448Z,3.03
2022-09-04T21:31:19.550Z,3.30
2022-09-04T21:34:10.161Z,3.42
2022-09-04T21:36:49.735Z,2.42
2022-09-04T21:39:19.410Z,3.75
2022-09-04T21:42:16.603Z,3.83
2022-09-04T21:45:06.428Z,2.47
2022-09-04T21:47:51.574Z,3.90
2022-09-04T21:50:58.838Z,3.92
2022-09-04T21:53:39.471Z,5.15
2022-09-04T22:01:30.531Z,5.05
2022-09-04T22:02:43.256Z,3.28
2022-09-04T22:02:59.382Z,4.72
2022-09-04T22:06:11.168Z,2.75
2022-09-04T22:13:28.627Z,3.67
2022-09-04T22:13:40.858Z,3.80
2022-09-04T22:14:34.697Z,3.50
2022-09-04T22:17:27.450Z,4.05
2022-09-04T22:20:20.089Z,3.63
2022-09-04T22:22:46.496Z,3.13
2022-09-04T22:25:22.081Z,3.17
2022-09-04T22:28:08.231Z,3.55
2022-09-04T22:31:16.993Z,3.45
2022-09-04T22:34:16.979Z,3.10
2022-09-04T22:37:05.692Z,4.68
2022-09-04T22:40:09.468Z,3.92
2022-09-04T22:42:46.180Z,3.35
2022-09-04T22:45:15.988Z,3.75
2022-09-04T22:48:04.227Z,3.20
2022-09-04T22:50:50.181Z,3.92
2022-09-04T22:53:52.138Z,3.85
2022-09-04T22:56:40.756Z,2.90
2022-09-04T22:59:43.923Z,4.35
2022-09-04T23:03:07.062Z,3.60
2022-09-04T23:05:39.862Z,3.95
2022-09-04T23:13:41.993Z,4.85
2022-09-04T23:13:56.673Z,5.00
2022-09-04T23:14:48.984Z,5.10
2022-09-04T23:18:30.568Z,4.63
2022-09-04T23:26:38.631Z,3.20
2022-09-04T23:26:48.236Z,3.88
2022-09-04T23:27:28.531Z,3.42
2022-09-04T23:30:26.550Z,3.25
2022-09-04T23:33:27.553Z,3.28
2022-09-04T23:35:54.736Z,4.78
2022-09-04T23:38:44.616Z,4.07
2022-09-04T23:41:35.412Z,3.88
2022-09-04T23:44:25.562Z,3.40
2022-09-04T23:47:09.456Z,4.75
2022-09-04T23:50:14.517Z,3.45
2022-09-04T23:53:02.220Z,3.75
2022-09-04T23:55:59.381Z,3.55
2022-09-04T23:59:09.433Z,4.30
